Time;durP1;ratioP1;P1;durP2;ratioP2;P2;SDS_P1;SDS_P2;PMS_P1;PMS_P2;Temp;Humidity;BMP_temperature;BMP_pressure;BME280_temperature;BME280_humidity;BME280_pressure;Samples;Min_cycle;Max_cycle;Signal;HPM_P1;HPM_P2
2022/02/16 00:04:41;;;;;;;1.27;0.50;;;17.70;63.00;;;;;;10417585;28;20048;-57
2022/02/16 00:09:42;;;;;;;1.50;0.55;;;17.70;63.00;;;;;;10416853;28;20112;-56
2022/02/16 00:14:43;;;;;;;1.95;0.50;;;17.70;62.90;;;;;;10415936;28;20025;-57
2022/02/16 00:19:43;;;;;;;0.75;0.47;;;17.70;63.00;;;;;;10415834;28;20048;-57
2022/02/16 00:24:44;;;;;;;3.08;0.82;;;17.70;63.00;;;;;;10413320;28;20113;-57
2022/02/16 00:29:45;;;;;;;0.88;0.47;;;17.70;62.90;;;;;;10406627;28;20424;-57
2022/02/16 00:34:45;;;;;;;2.20;0.50;;;17.70;62.90;;;;;;10434893;28;20140;-57
2022/02/16 00:39:46;;;;;;;0.90;0.40;;;17.70;62.90;;;;;;10414598;28;20032;-57
2022/02/16 00:44:47;;;;;;;0.77;0.40;;;17.70;62.80;;;;;;10414669;28;20052;-57
2022/02/16 00:49:48;;;;;;;1.02;0.30;;;17.70;62.90;;;;;;10415439;28;20029;-57
2022/02/16 00:54:49;;;;;;;1.27;0.40;;;17.70;62.80;;;;;;10415243;28;20146;-57
2022/02/16 00:59:50;;;;;;;2.22;0.73;;;17.70;62.70;;;;;;10414043;28;20402;-57
2022/02/16 01:04:50;;;;;;;2.08;0.50;;;17.70;62.90;;;;;;10413652;28;20029;-57
2022/02/16 01:09:51;;;;;;;0.77;0.40;;;17.70;62.90;;;;;;10414455;28;20033;-57
2022/02/16 01:14:53;;;;;;;2.10;0.63;;;17.70;62.80;;;;;;10413375;28;20040;-57
2022/02/16 01:19:54;;;;;;;0.95;0.45;;;17.70;62.80;;;;;;10414442;28;20116;-57
2022/02/16 01:24:55;;;;;;;1.05;0.40;;;17.70;62.80;;;;;;10391042;28;20586;-57
2022/02/16 01:29:56;;;;;;;1.23;0.43;;;17.70;62.60;;;;;;10409930;28;20116;-57
2022/02/16 01:34:56;;;;;;;1.40;0.50;;;17.70;62.70;;;;;;10417386;28;20128;-56
2022/02/16 01:39:57;;;;;;;0.68;0.40;;;17.70;62.70;;;;;;10412419;28;20083;-57
2022/02/16 01:44:58;;;;;;;1.48;0.40;;;17.60;62.90;;;;;;10428957;28;20037;-57
2022/02/16 01:49:58;;;;;;;1.05;0.40;;;17.70;62.90;;;;;;10412448;28;20477;-57
2022/02/16 01:54:59;;;;;;;0.75;0.40;;;17.60;62.90;;;;;;10413587;28;20557;-57
2022/02/16 02:00:00;;;;;;;0.68;0.32;;;17.70;62.90;;;;;;10411806;28;20025;-57
2022/02/16 02:05:01;;;;;;;0.40;0.30;;;17.60;62.70;;;;;;10395518;28;20428;-57
2022/02/16 02:10:03;;;;;;;0.80;0.32;;;17.60;62.70;;;;;;10411382;28;20036;-57
2022/02/16 02:15:04;;;;;;;0.70;0.40;;;17.70;62.80;;;;;;10413042;28;20065;-56
2022/02/16 02:20:27;;;;;;;0.73;0.40;;;17.60;62.70;;;;;;10412953;28;20168;-57
2022/02/16 02:25:28;;;;;;;0.80;0.40;;;17.60;62.80;;;;;;10394924;28;20069;-56
2022/02/16 02:30:28;;;;;;;0.38;0.30;;;17.60;62.70;;;;;;10407459;28;20029;-57
2022/02/16 02:35:29;;;;;;;0.57;0.30;;;17.60;62.60;;;;;;10414737;28;20068;-58
2022/02/16 02:40:30;;;;;;;1.00;0.50;;;17.60;62.70;;;;;;10410847;28;20033;-57
2022/02/16 02:45:31;;;;;;;1.13;0.40;;;17.60;62.70;;;;;;10418344;28;20628;-57
2022/02/16 02:50:32;;;;;;;0.32;0.30;;;17.60;62.60;;;;;;10420272;28;20038;-57
2022/02/16 02:55:32;;;;;;;1.08;0.32;;;17.60;62.70;;;;;;10418865;28;20442;-57
2022/02/16 03:00:33;;;;;;;1.30;0.55;;;17.60;62.60;;;;;;10402263;28;20068;-57
2022/02/16 03:05:34;;;;;;;0.85;0.40;;;17.60;62.60;;;;;;10416849;28;20115;-57
2022/02/16 03:10:35;;;;;;;1.40;0.40;;;17.70;62.60;;;;;;10418350;28;20045;-57
2022/02/16 03:15:35;;;;;;;0.85;0.40;;;17.60;62.60;;;;;;10419730;28;20029;-56
2022/02/16 03:20:36;;;;;;;0.65;0.30;;;17.60;62.50;;;;;;10419101;28;20040;-57
2022/02/16 03:25:36;;;;;;;0.82;0.47;;;17.60;62.50;;;;;;10419072;28;20100;-57
2022/02/16 03:30:38;;;;;;;0.47;0.30;;;17.70;62.50;;;;;;10418413;28;20417;-57
2022/02/16 03:35:38;;;;;;;0.40;0.30;;;17.70;62.30;;;;;;10403996;28;20029;-57
2022/02/16 03:40:39;;;;;;;0.40;0.30;;;17.70;62.40;;;;;;10417065;28;20042;-57
2022/02/16 03:45:40;;;;;;;0.55;0.30;;;17.70;62.30;;;;;;10417414;28;20055;-57
2022/02/16 03:50:41;;;;;;;1.25;0.40;;;17.70;62.30;;;;;;10418053;28;20037;-57
2022/02/16 03:55:42;;;;;;;0.95;0.40;;;17.70;62.30;;;;;;10398535;28;20107;-57
2022/02/16 04:00:42;;;;;;;0.73;0.35;;;17.70;62.20;;;;;;10416340;28;20095;-56
2022/02/16 04:05:44;;;;;;;0.38;0.30;;;17.70;62.20;;;;;;10418256;28;20452;-57
2022/02/16 04:10:45;;;;;;;0.45;0.35;;;17.70;62.20;;;;;;10415805;28;20112;-57
2022/02/16 04:15:45;;;;;;;0.60;0.40;;;17.70;62.10;;;;;;10416259;28;20120;-57
2022/02/16 04:20:46;;;;;;;1.63;0.28;;;17.70;62.20;;;;;;10416975;28;20126;-57
2022/02/16 04:25:47;;;;;;;0.85;0.30;;;17.70;62.10;;;;;;10416600;28;20037;-58
2022/02/16 04:30:48;;;;;;;0.73;0.40;;;17.70;62.00;;;;;;10414717;28;20042;-57
2022/02/16 04:35:49;;;;;;;0.30;0.22;;;17.70;62.10;;;;;;10395093;28;20168;-57
2022/02/16 04:40:50;;;;;;;1.50;0.43;;;17.60;62.30;;;;;;10424549;28;20561;-57
2022/02/16 04:45:51;;;;;;;0.93;0.32;;;17.60;62.40;;;;;;10414280;28;20044;-57
2022/02/16 04:50:51;;;;;;;0.77;0.38;;;17.70;62.30;;;;;;10413621;28;20014;-57
2022/02/16 04:55:52;;;;;;;1.33;0.50;;;17.60;62.20;;;;;;10404057;28;20378;-57
2022/02/16 05:00:53;;;;;;;0.65;0.20;;;17.60;62.20;;;;;;10414769;28;20109;-57
2022/02/16 05:05:53;;;;;;;1.95;0.73;;;17.60;62.10;;;;;;10418147;28;20108;-57
2022/02/16 05:10:54;;;;;;;0.20;0.20;;;17.60;62.10;;;;;;10413885;28;20108;-57
2022/02/16 05:15:55;;;;;;;0.65;0.32;;;17.60;62.20;;;;;;10413086;28;20195;-57
2022/02/16 05:20:55;;;;;;;0.60;0.30;;;17.60;62.10;;;;;;10414450;28;20022;-57
2022/02/16 05:25:57;;;;;;;0.65;0.22;;;17.60;62.10;;;;;;10404279;28;20100;-56
2022/02/16 05:30:58;;;;;;;0.57;0.30;;;17.60;62.10;;;;;;10428973;28;20045;-56
2022/02/16 05:35:59;;;;;;;0.47;0.38;;;17.60;62.00;;;;;;10418944;28;20033;-57
2022/02/16 05:40:59;;;;;;;0.88;0.32;;;17.60;62.10;;;;;;10413770;28;20433;-55
2022/02/16 05:46:00;;;;;;;0.70;0.30;;;17.60;62.30;;;;;;10412434;28;20485;-55
2022/02/16 05:51:00;;;;;;;2.22;0.50;;;17.60;62.00;;;;;;10412612;28;20037;-56
2022/02/16 05:56:01;;;;;;;0.80;0.60;;;17.70;62.00;;;;;;10413419;28;20503;-53
2022/02/16 06:01:03;;;;;;;2.03;0.50;;;17.70;63.00;;;;;;10413178;28;20533;-53
2022/02/16 06:06:04;;;;;;;2.13;0.40;;;17.80;63.70;;;;;;10396981;28;20022;-55
2022/02/16 06:11:04;;;;;;;4.65;0.52;;;17.80;64.10;;;;;;10393069;28;20041;-56
2022/02/16 06:16:06;;;;;;;5.22;0.65;;;17.80;64.20;;;;;;10410929;28;20485;-55
2022/02/16 06:21:06;;;;;;;4.40;0.60;;;17.80;64.20;;;;;;10419033;28;20036;-56
2022/02/16 06:26:08;;;;;;;3.95;0.50;;;17.80;65.00;;;;;;10421172;28;20125;-58
2022/02/16 06:31:09;;;;;;;4.63;0.60;;;17.70;64.40;;;;;;10421259;28;20405;-58
2022/02/16 06:36:10;;;;;;;5.72;0.80;;;17.70;64.50;;;;;;10412774;28;20021;-57
2022/02/16 06:41:10;;;;;;;6.35;0.98;;;17.60;64.70;;;;;;10420973;28;20029;-58
2022/02/16 06:46:12;;;;;;;18.33;1.70;;;17.60;65.50;;;;;;10412227;28;20030;-60
2022/02/16 06:51:17;;;;;;;7.05;1.73;;;17.70;64.80;;;;;;10432203;28;20033;-64
2022/02/16 06:56:18;;;;;;;14.18;1.35;;;17.70;64.40;;;;;;10417696;28;20033;-64
2022/02/16 07:01:18;;;;;;;8.45;1.35;;;17.70;65.20;;;;;;10402737;28;20466;-61
2022/02/16 07:06:19;;;;;;;15.25;1.42;;;17.60;64.80;;;;;;10400316;28;20557;-61
2022/02/16 07:11:20;;;;;;;6.82;1.40;;;17.50;65.30;;;;;;10415594;28;20037;-60
2022/02/16 07:16:21;;;;;;;11.38;1.73;;;17.60;65.70;;;;;;10430944;28;20034;-61
2022/02/16 07:21:23;;;;;;;6.38;1.42;;;17.50;65.20;;;;;;10422755;28;20021;-60
2022/02/16 07:26:24;;;;;;;11.90;1.45;;;17.30;65.30;;;;;;10416068;28;20147;-61
2022/02/16 07:31:25;;;;;;;8.20;0.75;;;17.30;65.30;;;;;;10405681;28;20191;-61
2022/02/16 07:36:26;;;;;;;9.45;1.00;;;17.30;65.20;;;;;;10407122;28;20065;-60
2022/02/16 07:41:26;;;;;;;6.20;1.00;;;17.30;66.60;;;;;;10415775;28;20056;-60
2022/02/16 07:46:27;;;;;;;9.15;1.70;;;17.20;66.80;;;;;;10415553;28;20029;-61
2022/02/16 07:51:28;;;;;;;11.88;1.55;;;17.40;66.90;;;;;;10411594;28;20128;-60
2022/02/16 07:56:33;;;;;;;9.77;1.15;;;17.40;66.90;;;;;;10416926;28;20364;-60
2022/02/16 08:01:34;;;;;;;2.40;0.70;;;17.40;66.80;;;;;;10408181;28;20026;-61
2022/02/16 08:06:35;;;;;;;6.38;1.00;;;17.50;66.20;;;;;;10420980;28;20116;-62
2022/02/16 08:11:40;;;;;;;7.30;1.00;;;17.40;66.20;;;;;;10416399;28;20079;-62
2022/02/16 08:16:41;;;;;;;14.55;2.13;;;17.50;66.10;;;;;;10395542;28;20109;-62
2022/02/16 08:21:46;;;;;;;8.57;1.10;;;17.70;65.80;;;;;;10415662;28;20044;-63
2022/02/16 08:26:47;;;;;;;6.68;1.30;;;17.70;65.70;;;;;;10410720;28;20030;-63
2022/02/16 08:31:47;;;;;;;7.95;1.48;;;17.60;65.90;;;;;;10411273;28;20053;-61
2022/02/16 08:36:55;;;;;;;7.05;1.13;;;17.70;65.90;;;;;;10431897;28;20417;-61
2022/02/16 08:41:56;;;;;;;9.73;2.13;;;17.70;66.10;;;;;;10414854;28;20021;-61
2022/02/16 08:46:57;;;;;;;9.38;1.58;;;17.70;65.80;;;;;;10409171;28;20493;-61
2022/02/16 08:51:57;;;;;;;7.32;1.13;;;17.70;65.70;;;;;;10410917;28;20485;-61
2022/02/16 08:56:59;;;;;;;8.45;1.08;;;17.60;66.00;;;;;;10412902;28;20040;-61
2022/02/16 09:02:00;;;;;;;9.25;1.20;;;17.50;66.30;;;;;;10414705;28;20036;-59
2022/02/16 09:12:20;;;;;;;10.55;1.30;;;17.50;66.60;;;;;;10422377;28;20494;-59
2022/02/16 09:17:23;;;;;;;8.27;1.20;;;17.60;66.40;;;;;;10396661;28;20029;-61
2022/02/16 09:22:25;;;;;;;9.48;1.50;;;17.50;66.10;;;;;;10404101;28;20103;-60
2022/02/16 09:27:26;;;;;;;8.88;1.27;;;17.50;66.40;;;;;;10421530;28;20036;-59
2022/02/16 09:32:27;;;;;;;9.65;1.70;;;17.50;66.70;;;;;;10428687;28;20045;-62
2022/02/16 09:37:28;;;;;;;13.85;2.55;;;17.50;66.70;;;;;;10412058;28;20034;-59
2022/02/16 09:42:34;;;;;;;14.35;2.38;;;17.60;66.40;;;;;;10414073;28;20522;-59
2022/02/16 09:47:34;;;;;;;12.50;1.80;;;17.60;66.50;;;;;;10412039;28;20109;-62
2022/02/16 09:52:35;;;;;;;7.75;1.60;;;17.60;66.70;;;;;;10411302;28;20067;-61
2022/02/16 09:57:36;;;;;;;8.20;2.08;;;17.50;66.30;;;;;;10411810;28;20026;-62
2022/02/16 10:02:38;;;;;;;9.05;1.30;;;17.50;66.30;;;;;;10411993;28;20854;-59
2022/02/16 10:07:46;;;;;;;5.32;1.52;;;17.60;65.50;;;;;;10413220;28;20034;-59
2022/02/16 10:12:50;;;;;;;8.85;1.80;;;17.80;66.10;;;;;;10405768;28;20029;-61
2022/02/16 10:18:15;;;;;;;7.30;1.73;;;17.80;66.40;;;;;;10405962;28;20124;-60
2022/02/16 10:23:17;;;;;;;8.40;1.67;;;17.80;66.50;;;;;;10409132;28;20029;-60
2022/02/16 10:28:21;;;;;;;10.13;2.13;;;17.70;66.50;;;;;;10411539;28;20075;-63
2022/02/16 10:33:42;;;;;;;5.07;1.40;;;17.70;66.60;;;;;;10414163;28;20049;-61
2022/02/16 10:39:06;;;;;;;7.03;1.10;;;17.60;66.60;;;;;;10412274;28;20030;-62
2022/02/16 10:44:33;;;;;;;6.38;1.10;;;17.50;65.80;;;;;;10412599;28;20032;-62
2022/02/16 10:49:39;;;;;;;4.50;1.02;;;17.70;65.00;;;;;;10409202;28;20080;-62
2022/02/16 10:54:58;;;;;;;5.53;1.00;;;18.00;64.70;;;;;;10410772;28;20124;-63
2022/02/16 10:59:58;;;;;;;6.72;1.40;;;18.10;64.60;;;;;;10411201;28;20549;-62
2022/02/16 11:05:01;;;;;;;6.10;1.38;;;18.30;68.70;;;;;;10412764;28;20017;-61
2022/02/16 11:10:05;;;;;;;8.60;1.00;;;18.20;66.40;;;;;;10417042;28;20033;-63
2022/02/16 11:15:07;;;;;;;8.10;1.63;;;18.10;66.20;;;;;;10417432;28;20033;-62
2022/02/16 11:20:26;;;;;;;4.78;1.08;;;18.10;66.40;;;;;;10417060;28;20036;-62
2022/02/16 11:25:36;;;;;;;9.03;1.43;;;18.00;66.60;;;;;;10415230;28;20103;-62
2022/02/16 11:30:41;;;;;;;20.48;16.70;;;17.80;68.10;;;;;;10416170;28;20284;-62
2022/02/16 11:35:50;;;;;;;37.85;28.95;;;17.80;67.20;;;;;;10419604;28;20037;-62
2022/02/16 11:40:55;;;;;;;26.83;20.88;;;17.90;66.70;;;;;;10434112;28;20131;-64
2022/02/16 11:46:00;;;;;;;21.40;16.92;;;17.90;66.30;;;;;;10416630;28;20032;-63
2022/02/16 11:51:26;;;;;;;22.38;17.52;;;18.00;65.40;;;;;;10417297;28;20611;-63
2022/02/16 11:56:35;;;;;;;25.85;17.65;;;18.20;65.10;;;;;;10417355;28;20044;-61
2022/02/16 12:02:05;;;;;;;24.17;15.75;;;18.30;64.60;;;;;;10415759;28;20066;-61
2022/02/16 12:07:29;;;;;;;21.30;13.70;;;18.30;64.40;;;;;;10430014;28;20114;-62
2022/02/16 12:12:31;;;;;;;16.73;10.48;;;18.20;64.50;;;;;;10415317;28;20502;-63
2022/02/16 12:17:33;;;;;;;12.63;9.60;;;18.30;63.80;;;;;;10420456;28;20040;-63
2022/02/16 12:22:35;;;;;;;12.10;6.88;;;18.40;63.30;;;;;;10414808;28;20032;-62
2022/02/16 12:27:37;;;;;;;12.50;7.25;;;18.40;63.30;;;;;;10410618;28;20449;-62
2022/02/16 12:32:45;;;;;;;12.68;7.28;;;18.40;63.50;;;;;;10423326;28;20048;-61
2022/02/16 12:37:46;;;;;;;13.38;6.47;;;18.40;63.80;;;;;;10397504;28;20029;-60
2022/02/16 12:42:47;;;;;;;16.70;7.60;;;18.20;64.40;;;;;;10413342;28;20036;-60
2022/02/16 12:47:50;;;;;;;13.95;6.03;;;18.10;64.50;;;;;;10413887;28;20545;-61
2022/02/16 12:52:52;;;;;;;12.63;6.03;;;18.00;64.50;;;;;;10431016;28;20470;-61
2022/02/16 12:57:54;;;;;;;9.07;5.43;;;17.80;64.70;;;;;;10415950;28;20457;-61
2022/02/16 13:03:04;;;;;;;12.85;5.60;;;17.80;64.90;;;;;;10417610;28;20041;-61
2022/02/16 13:08:07;;;;;;;10.45;5.15;;;17.80;65.00;;;;;;10414289;28;20033;-62
2022/02/16 13:13:30;;;;;;;9.98;5.15;;;17.70;65.00;;;;;;10414037;28;20496;-62
2022/02/16 13:18:49;;;;;;;8.52;4.60;;;17.60;65.10;;;;;;10406206;28;20044;-62
2022/02/16 13:23:59;;;;;;;11.48;4.82;;;17.60;65.20;;;;;;10396430;28;20149;-59
2022/02/16 13:29:06;;;;;;;11.05;4.93;;;17.60;66.20;;;;;;10398653;28;20037;-60
2022/02/16 13:34:09;;;;;;;8.60;5.30;;;17.70;66.40;;;;;;10412528;28;20041;-60
2022/02/16 13:39:21;;;;;;;10.85;5.25;;;17.60;66.80;;;;;;10411812;28;20116;-60
2022/02/16 13:44:29;;;;;;;10.20;4.63;;;17.60;66.90;;;;;;10428542;28;20029;-61
2022/02/16 13:49:32;;;;;;;12.77;4.50;;;17.50;66.00;;;;;;10414090;28;20040;-62
2022/02/16 13:54:38;;;;;;;12.45;4.78;;;17.50;66.60;;;;;;10411356;28;20107;-60
2022/02/16 14:00:01;;;;;;;12.68;4.90;;;17.50;67.20;;;;;;10411024;28;20030;-60
2022/02/16 14:05:06;;;;;;;13.65;4.95;;;17.40;66.60;;;;;;10411770;28;20601;-62
2022/02/16 14:10:07;;;;;;;16.55;4.97;;;17.50;66.50;;;;;;10424321;28;20025;-62
2022/02/16 14:15:08;;;;;;;15.23;4.70;;;17.40;66.70;;;;;;10409549;28;20072;-63
2022/02/16 14:20:09;;;;;;;12.70;4.90;;;17.40;66.90;;;;;;10428001;28;20421;-65
2022/02/16 14:25:10;;;;;;;16.02;4.65;;;17.40;67.20;;;;;;10408944;28;20029;-64
2022/02/16 14:30:14;;;;;;;16.17;4.55;;;17.40;67.10;;;;;;10412941;28;20109;-63
2022/02/16 14:35:17;;;;;;;13.48;4.43;;;17.70;67.30;;;;;;10411477;28;20719;-63
2022/02/16 14:40:19;;;;;;;12.70;4.68;;;17.60;67.00;;;;;;10414612;28;20378;-67
2022/02/16 14:45:20;;;;;;;13.05;4.63;;;17.50;67.10;;;;;;10418251;28;20029;-64
2022/02/16 14:50:22;;;;;;;10.50;4.63;;;17.50;67.00;;;;;;10418943;28;20036;-63
2022/02/16 14:55:23;;;;;;;11.57;4.22;;;17.40;67.20;;;;;;10420078;28;20033;-63
2022/02/16 15:00:24;;;;;;;13.38;4.38;;;17.30;67.20;;;;;;10433329;28;20048;-65
2022/02/16 15:05:26;;;;;;;11.18;4.25;;;17.30;67.30;;;;;;10419878;28;20303;-65
2022/02/16 15:10:28;;;;;;;13.68;4.85;;;17.30;67.10;;;;;;10419710;28;20108;-65
2022/02/16 15:15:29;;;;;;;13.85;4.55;;;17.20;67.00;;;;;;10405895;28;20484;-65
2022/02/16 15:20:33;;;;;;;15.05;4.63;;;17.20;66.90;;;;;;10418132;28;20112;-65
2022/02/16 15:25:38;;;;;;;8.45;3.83;;;17.30;66.80;;;;;;10414602;28;20026;-65
2022/02/16 15:30:40;;;;;;;9.23;5.07;;;17.40;66.40;;;;;;10417405;28;20025;-65
2022/02/16 15:35:41;;;;;;;9.15;4.10;;;17.50;66.00;;;;;;10422345;28;20030;-65
2022/02/16 15:40:42;;;;;;;7.30;3.72;;;17.60;65.80;;;;;;10426422;28;20037;-65
2022/02/16 15:45:45;;;;;;;13.40;3.33;;;17.60;65.30;;;;;;10417350;28;20021;-65
2022/02/16 15:50:46;;;;;;;6.45;3.50;;;17.70;65.10;;;;;;10417581;28;20362;-66
2022/02/16 15:55:49;;;;;;;8.45;3.25;;;17.70;65.00;;;;;;10421784;28;20549;-65
2022/02/16 16:00:49;;;;;;;7.90;3.47;;;17.70;64.80;;;;;;10415790;28;20541;-65
2022/02/16 16:05:51;;;;;;;6.80;3.70;;;17.70;64.70;;;;;;10416119;28;20157;-65
2022/02/16 16:10:53;;;;;;;6.75;3.08;;;17.70;64.70;;;;;;10423518;28;20096;-64
2022/02/16 16:15:59;;;;;;;9.10;3.55;;;17.70;64.80;;;;;;10399098;28;20048;-66
2022/02/16 16:20:59;;;;;;;13.48;3.65;;;17.70;64.80;;;;;;10421640;28;20112;-64
2022/02/16 16:26:01;;;;;;;19.75;4.22;;;17.80;65.20;;;;;;10414582;28;20036;-64
2022/02/16 16:31:02;;;;;;;30.35;6.53;;;17.80;65.30;;;;;;10399677;28;20053;-63
2022/02/16 16:36:03;;;;;;;24.80;4.80;;;17.90;65.80;;;;;;10419281;28;20046;-61
2022/02/16 16:41:04;;;;;;;42.90;6.03;;;17.80;66.10;;;;;;10431760;28;20104;-62
2022/02/16 16:46:05;;;;;;;23.67;5.88;;;17.90;66.00;;;;;;10421777;28;20021;-63
2022/02/16 16:51:06;;;;;;;19.58;6.50;;;17.90;66.30;;;;;;10414905;28;20108;-62
2022/02/16 16:56:07;;;;;;;21.90;6.90;;;18.00;66.20;;;;;;10421869;28;20033;-62
2022/02/16 17:01:07;;;;;;;29.17;7.70;;;17.90;66.90;;;;;;10413577;28;20109;-60
2022/02/16 17:06:09;;;;;;;25.70;5.90;;;18.00;67.60;;;;;;10398153;28;20026;-59
2022/02/16 17:11:09;;;;;;;27.63;6.35;;;18.00;68.80;;;;;;10397093;28;20079;-60
2022/02/16 17:16:11;;;;;;;25.17;6.03;;;18.20;68.50;;;;;;10409590;28;20048;-59
2022/02/16 17:21:12;;;;;;;21.08;6.15;;;18.20;68.50;;;;;;10413778;28;20056;-60
2022/02/16 17:26:13;;;;;;;24.75;6.43;;;18.10;68.00;;;;;;10429595;28;20123;-59
2022/02/16 17:31:14;;;;;;;22.55;5.78;;;18.10;68.50;;;;;;10414167;28;20041;-58
2022/02/16 17:36:15;;;;;;;20.27;5.20;;;18.00;68.80;;;;;;10413866;28;20374;-62
2022/02/16 17:41:15;;;;;;;21.95;6.25;;;18.00;68.60;;;;;;10409724;28;20030;-60
2022/02/16 17:46:16;;;;;;;23.75;5.43;;;17.90;68.60;;;;;;10410036;28;20591;-59
2022/02/16 17:51:17;;;;;;;20.52;5.35;;;17.80;68.60;;;;;;10414397;28;20120;-59
2022/02/16 17:56:18;;;;;;;27.15;6.30;;;17.70;68.70;;;;;;10393942;28;20029;-59
2022/02/16 18:01:19;;;;;;;19.05;5.13;;;17.60;69.00;;;;;;10413552;28;20025;-59
2022/02/16 18:06:20;;;;;;;11.10;4.18;;;17.50;68.80;;;;;;10415256;28;20029;-60
2022/02/16 18:11:21;;;;;;;14.90;5.00;;;17.60;68.80;;;;;;10412178;28;20068;-60
2022/02/16 18:16:22;;;;;;;12.82;5.15;;;17.50;68.90;;;;;;10404072;28;20117;-59
2022/02/16 18:21:23;;;;;;;13.02;3.42;;;17.50;68.90;;;;;;10411531;28;20500;-60
2022/02/16 18:26:27;;;;;;;13.95;4.18;;;17.40;68.90;;;;;;10394738;28;20029;-60
2022/02/16 18:31:27;;;;;;;18.83;4.60;;;17.40;69.30;;;;;;10400934;28;20073;-61
2022/02/16 18:36:29;;;;;;;12.48;4.57;;;17.40;69.00;;;;;;10413502;28;20041;-61
2022/02/16 18:41:30;;;;;;;31.52;4.72;;;17.40;68.80;;;;;;10410092;28;20497;-62
2022/02/16 18:46:33;;;;;;;11.13;3.97;;;17.40;68.80;;;;;;10409581;28;20379;-61
2022/02/16 18:51:34;;;;;;;12.40;4.25;;;17.40;68.80;;;;;;10408960;28;20056;-61
2022/02/16 18:56:35;;;;;;;12.40;4.35;;;17.40;68.70;;;;;;10425539;28;20056;-61
2022/02/16 19:01:35;;;;;;;11.15;3.45;;;17.40;68.60;;;;;;10409066;28;20067;-61
2022/02/16 19:06:38;;;;;;;12.55;3.58;;;17.40;68.40;;;;;;10407396;28;20038;-60
2022/02/16 19:11:38;;;;;;;9.75;3.67;;;17.50;68.20;;;;;;10410478;28;20114;-60
2022/02/16 19:16:39;;;;;;;8.20;3.63;;;17.60;68.10;;;;;;10405200;28;20450;-61
2022/02/16 19:21:40;;;;;;;11.52;3.63;;;17.60;68.10;;;;;;10402772;28;20501;-60
2022/02/16 19:26:41;;;;;;;11.02;3.20;;;17.60;68.10;;;;;;10404249;28;20034;-61
2022/02/16 19:31:42;;;;;;;10.32;3.30;;;17.70;68.10;;;;;;10399272;28;20132;-60
2022/02/16 19:36:42;;;;;;;9.05;3.00;;;17.70;68.10;;;;;;10408862;28;20075;-61
2022/02/16 19:41:43;;;;;;;5.93;2.40;;;17.70;68.00;;;;;;10403756;28;20104;-61
2022/02/16 19:46:44;;;;;;;8.93;3.13;;;17.70;68.00;;;;;;10416846;28;20033;-61
2022/02/16 19:51:45;;;;;;;8.38;2.72;;;17.80;68.10;;;;;;10417110;28;20040;-60
2022/02/16 19:56:46;;;;;;;11.27;2.97;;;17.70;68.20;;;;;;10414227;28;20120;-60
2022/02/16 20:01:49;;;;;;;7.20;2.70;;;17.60;68.40;;;;;;10405502;28;20106;-60
2022/02/16 20:06:50;;;;;;;6.97;2.45;;;17.60;68.60;;;;;;10406703;28;21275;-61
2022/02/16 20:11:51;;;;;;;5.90;2.58;;;17.60;68.70;;;;;;10406035;28;20033;-60
2022/02/16 20:16:52;;;;;;;6.15;2.38;;;17.60;68.50;;;;;;10394853;28;20056;-60
2022/02/16 20:21:53;;;;;;;5.63;1.83;;;17.60;68.60;;;;;;10423712;28;20033;-59
2022/02/16 20:26:54;;;;;;;5.32;2.53;;;17.60;68.60;;;;;;10388191;28;20481;-60
2022/02/16 20:31:58;;;;;;;4.78;2.55;;;17.50;68.70;;;;;;10406351;28;20184;-59
2022/02/16 20:36:59;;;;;;;4.32;1.80;;;17.50;68.80;;;;;;10413219;28;20488;-61
2022/02/16 20:42:02;;;;;;;6.57;2.05;;;17.50;69.00;;;;;;10413752;28;20029;-60
2022/02/16 20:47:03;;;;;;;6.18;2.47;;;17.50;69.00;;;;;;10403951;28;20371;-61
2022/02/16 20:52:04;;;;;;;4.80;1.83;;;17.50;68.70;;;;;;10406182;28;20040;-60
2022/02/16 20:57:05;;;;;;;5.03;1.48;;;17.60;68.50;;;;;;10414244;28;20037;-60
2022/02/16 21:02:05;;;;;;;6.45;2.40;;;17.60;68.40;;;;;;10397494;28;20098;-60
2022/02/16 21:07:07;;;;;;;6.22;1.65;;;17.70;68.10;;;;;;10403855;28;20171;-60
2022/02/16 21:12:08;;;;;;;5.80;2.08;;;17.70;67.60;;;;;;10413491;28;20514;-60
2022/02/16 21:17:09;;;;;;;4.80;1.80;;;17.70;68.10;;;;;;10414083;28;20040;-61
2022/02/16 21:22:12;;;;;;;4.10;1.58;;;17.70;67.40;;;;;;10425175;28;20519;-60
2022/02/16 21:27:17;;;;;;;5.55;1.25;;;17.70;67.90;;;;;;10429718;28;20029;-61
2022/02/16 21:32:19;;;;;;;3.70;2.13;;;17.70;67.30;;;;;;10431534;28;20049;-60
2022/02/16 21:37:25;;;;;;;5.30;1.67;;;17.80;67.20;;;;;;10414153;28;20034;-61
2022/02/16 21:42:25;;;;;;;3.85;1.40;;;17.80;67.10;;;;;;10420676;28;20036;-61
2022/02/16 21:47:26;;;;;;;3.38;1.40;;;17.80;66.80;;;;;;10412544;28;20116;-60
2022/02/16 21:52:27;;;;;;;5.18;1.45;;;17.90;66.60;;;;;;10412889;28;20126;-60
2022/02/16 21:57:31;;;;;;;5.18;1.30;;;17.90;66.50;;;;;;10413773;28;20040;-60
2022/02/16 22:02:31;;;;;;;4.53;1.20;;;18.00;66.30;;;;;;10413775;28;20116;-60
2022/02/16 22:07:32;;;;;;;4.00;1.20;;;17.90;66.30;;;;;;10415625;28;20108;-60
2022/02/16 22:12:33;;;;;;;3.95;1.17;;;17.90;66.30;;;;;;10428711;28;20032;-60
2022/02/16 22:17:36;;;;;;;3.22;0.93;;;17.90;66.40;;;;;;10394665;28;20482;-60
2022/02/16 22:22:44;;;;;;;4.25;0.93;;;17.90;66.30;;;;;;10428455;28;20369;-60
2022/02/16 22:27:46;;;;;;;3.28;1.00;;;17.90;66.30;;;;;;10411456;28;20033;-60
2022/02/16 22:32:49;;;;;;;3.00;1.50;;;17.90;66.30;;;;;;10398255;28;20053;-61
2022/02/16 22:37:50;;;;;;;2.95;1.00;;;17.90;66.20;;;;;;10428138;28;20038;-61
2022/02/16 22:42:51;;;;;;;2.72;1.00;;;17.90;66.20;;;;;;10411549;28;20381;-61
2022/02/16 22:47:52;;;;;;;1.77;0.90;;;17.90;66.10;;;;;;10411403;28;20041;-60
2022/02/16 22:52:53;;;;;;;4.85;1.10;;;17.90;66.10;;;;;;10427952;28;20029;-61
2022/02/16 22:57:54;;;;;;;3.80;1.00;;;17.90;66.10;;;;;;10411132;28;20037;-61
2022/02/16 23:03:07;;;;;;;1.88;0.88;;;17.90;66.00;;;;;;10418800;28;20426;-61
2022/02/16 23:13:27;;;;;;;1.98;0.70;;;17.90;66.10;;;;;;10419738;28;20041;-60
2022/02/16 23:18:28;;;;;;;1.55;0.75;;;17.90;65.90;;;;;;10418566;28;20402;-61
2022/02/16 23:23:29;;;;;;;2.13;0.70;;;17.90;65.90;;;;;;10418064;28;20029;-61
2022/02/16 23:28:30;;;;;;;1.83;0.73;;;17.90;65.90;;;;;;10421281;28;20025;-61
2022/02/16 23:33:32;;;;;;;2.42;0.80;;;17.90;65.80;;;;;;10424338;28;20049;-61
2022/02/16 23:38:34;;;;;;;2.47;0.77;;;17.90;65.90;;;;;;10422082;28;20036;-61
2022/02/16 23:43:36;;;;;;;4.55;0.90;;;17.90;65.90;;;;;;10417463;28;20038;-61
2022/02/16 23:48:37;;;;;;;2.00;0.70;;;17.90;65.80;;;;;;10433779;28;20049;-61
2022/02/16 23:53:38;;;;;;;3.60;0.90;;;17.80;65.80;;;;;;10417337;28;20053;-61
2022/02/16 23:58:39;;;;;;;3.13;0.70;;;17.90;65.80;;;;;;10408323;28;20033;-61
